createdAt,value
2022-08-12T00:00:44.253Z,1.58
2022-08-12T00:06:15.967Z,1.47
2022-08-12T00:11:47.964Z,1.50
2022-08-12T00:17:20.621Z,1.53
2022-08-12T00:22:58.621Z,1.55
2022-08-12T00:28:23.482Z,1.52
2022-08-12T00:33:55.099Z,1.50
2022-08-12T00:39:26.832Z,1.45
2022-08-12T00:44:58.404Z,1.55
2022-08-12T00:50:30.285Z,1.70
2022-08-12T00:56:01.795Z,1.80
2022-08-12T01:02:11.472Z,1.90
2022-08-12T01:07:05.517Z,2.05
2022-08-12T01:12:37.376Z,2.15
2022-08-12T01:18:09.225Z,2.15
2022-08-12T01:23:40.954Z,2.30
2022-08-12T01:29:12.694Z,2.35
2022-08-12T01:34:44.520Z,2.40
2022-08-12T01:40:31.595Z,2.45
2022-08-12T01:45:47.768Z,2.65
2022-08-12T01:51:24.450Z,2.65
2022-08-12T01:56:51.289Z,2.65
2022-08-12T02:02:23.042Z,2.65
2022-08-12T02:07:54.909Z,2.75
2022-08-12T02:13:43.663Z,2.85
2022-08-12T02:18:58.378Z,2.90
2022-08-12T02:24:30.167Z,3.00
2022-08-12T02:30:01.991Z,3.05
2022-08-12T02:35:33.621Z,3.10
2022-08-12T02:41:05.805Z,3.15
2022-08-12T02:46:37.403Z,3.15
2022-08-12T02:52:09.371Z,3.25
2022-08-12T02:57:41.153Z,3.25
2022-08-12T03:03:13.094Z,3.40
2022-08-12T03:08:49.171Z,3.45
2022-08-12T03:14:16.852Z,3.45
2022-08-12T03:20:09.378Z,3.60
2022-08-12T03:25:21.892Z,3.70
2022-08-12T03:30:56.653Z,3.70
2022-08-12T03:41:58.090Z,3.90
2022-08-12T03:47:29.359Z,4.00
2022-08-12T03:58:33.050Z,4.25
2022-08-12T04:15:08.066Z,4.65
2022-08-12T04:20:39.937Z,4.75
2022-08-12T04:26:11.731Z,4.80
2022-08-12T04:31:43.501Z,4.85
2022-08-12T04:37:15.062Z,4.90
2022-08-12T04:42:47.168Z,5.05
2022-08-12T04:48:18.720Z,5.20
2022-08-12T04:53:50.483Z,5.20
2022-08-12T04:59:22.259Z,5.20
2022-08-12T05:16:04.200Z,5.40
2022-08-12T05:21:31.258Z,5.40
2022-08-12T05:32:34.882Z,5.55
2022-08-12T05:38:06.644Z,5.60
2022-08-12T05:43:38.200Z,5.70
2022-08-12T05:49:10.009Z,5.70
2022-08-12T05:54:57.140Z,5.80
2022-08-12T06:00:13.430Z,5.95
2022-08-12T06:11:17.137Z,6.05
2022-08-12T06:16:49.336Z,6.15
2022-08-12T06:22:20.945Z,6.25
2022-08-12T06:28:05.862Z,6.45
2022-08-12T06:33:56.077Z,6.65
2022-08-12T06:38:56.297Z,6.70
2022-08-12T06:44:28.058Z,6.80
2022-08-12T06:50:00.013Z,6.90
2022-08-12T06:55:31.846Z,7.05
2022-08-12T07:06:35.479Z,7.40
2022-08-12T07:12:07.399Z,7.55
2022-08-12T07:17:39.142Z,7.65
2022-08-12T07:23:10.916Z,7.75
2022-08-12T07:28:42.797Z,7.80
2022-08-12T07:34:14.584Z,7.80
2022-08-12T07:39:50.127Z,7.80
2022-08-12T07:50:50.148Z,8.05
2022-08-12T08:01:53.801Z,8.15
2022-08-12T08:12:57.361Z,8.40
2022-08-12T08:18:29.098Z,8.50
2022-08-12T08:24:05.415Z,8.55
2022-08-12T08:29:35.135Z,8.60
2022-08-12T08:35:06.965Z,8.70
2022-08-12T08:40:38.961Z,8.85
2022-08-12T08:46:10.637Z,8.85
2022-08-12T08:51:42.623Z,8.95
2022-08-12T08:57:14.258Z,9.10
2022-08-12T09:02:49.018Z,9.15
2022-08-12T09:08:26.696Z,9.40
2022-08-12T09:24:55.485Z,9.75
2022-08-12T09:30:41.786Z,9.85
2022-08-12T09:36:04.689Z,9.90
2022-08-12T09:47:00.471Z,9.90
2022-08-12T09:52:32.293Z,10.00
2022-08-12T09:58:44.870Z,10.15
2022-08-12T10:03:35.859Z,10.25
2022-08-12T10:09:08.220Z,10.30
2022-08-12T10:14:39.191Z,10.50
2022-08-12T10:20:12.014Z,10.60
2022-08-12T10:26:36.752Z,10.65
2022-08-12T10:31:16.042Z,10.70
2022-08-12T10:36:46.528Z,10.75
2022-08-12T10:42:29.070Z,10.90
2022-08-12T10:48:07.360Z,11.10
2022-08-12T10:53:21.965Z,11.25
2022-08-12T10:58:53.976Z,11.60
2022-08-12T11:04:45.188Z,11.75
2022-08-12T11:10:01.447Z,11.90
2022-08-12T11:15:33.569Z,12.05
2022-08-12T11:21:05.689Z,12.20
2022-08-12T11:26:34.328Z,12.35
2022-08-12T11:32:05.821Z,12.40
2022-08-12T11:37:59.177Z,12.55
2022-08-12T11:43:19.237Z,12.60
2022-08-12T11:54:14.901Z,12.80
2022-08-12T12:02:02.924Z,12.80
2022-08-12T12:05:16.970Z,12.80
2022-08-12T12:08:36.222Z,1.97
2022-08-12T12:13:01.651Z,2.46
2022-08-12T12:18:33.756Z,1.97
2022-08-12T12:24:05.551Z,1.71
2022-08-12T12:30:13.473Z,1.37
2022-08-12T12:36:05.418Z,1.47
2022-08-12T12:40:40.955Z,1.54
2022-08-12T12:46:12.633Z,1.47
2022-08-12T12:52:06.774Z,1.52
2022-08-12T12:57:17.028Z,1.57
2022-08-12T13:02:52.971Z,1.42
2022-08-12T13:08:20.617Z,1.47
2022-08-12T13:14:09.750Z,1.73
2022-08-12T13:19:25.493Z,1.68
2022-08-12T13:24:57.180Z,1.63
2022-08-12T13:30:28.413Z,1.53
2022-08-12T13:36:06.207Z,1.61
2022-08-12T13:41:32.495Z,1.58
2022-08-12T13:47:18.532Z,1.55
2022-08-12T13:52:36.414Z,1.65
2022-08-12T13:58:12.678Z,1.80
2022-08-12T14:03:49.996Z,1.85
2022-08-12T14:09:17.318Z,2.00
2022-08-12T14:14:43.616Z,2.15
2022-08-12T14:20:15.170Z,2.20
2022-08-12T14:25:47.006Z,2.25
2022-08-12T14:31:18.918Z,2.35
2022-08-12T14:36:50.879Z,2.35
2022-08-12T14:42:22.720Z,2.40
2022-08-12T14:47:58.568Z,2.45
2022-08-12T14:59:00.089Z,2.70
2022-08-12T15:04:29.361Z,2.75
2022-08-12T15:10:01.702Z,2.90
2022-08-12T15:15:36.215Z,3.05
2022-08-12T15:21:11.483Z,3.05
2022-08-12T15:26:40.815Z,3.05
2022-08-12T15:32:15.711Z,3.10
2022-08-12T15:37:59.028Z,3.20
2022-08-12T15:45:34.221Z,3.93
2022-08-12T15:51:06.090Z,2.46
2022-08-12T15:56:38.044Z,1.64
2022-08-12T16:02:09.941Z,1.47
2022-08-12T16:07:41.732Z,1.76
2022-08-12T16:13:13.570Z,1.80
2022-08-12T16:18:45.291Z,1.82
2022-08-12T16:24:16.770Z,2.20
2022-08-12T16:29:53.366Z,2.29
2022-08-12T16:35:20.126Z,2.15
2022-08-12T16:40:52.043Z,2.23
2022-08-12T16:46:31.410Z,2.37
2022-08-12T16:51:55.902Z,2.33
2022-08-12T16:57:34.961Z,2.17
2022-08-12T17:02:59.844Z,2.09
2022-08-12T17:08:31.453Z,1.96
2022-08-12T17:14:03.381Z,1.96
2022-08-12T17:20:29.143Z,1.90
2022-08-12T17:30:39.036Z,1.95
2022-08-12T17:36:10.908Z,2.10
2022-08-12T17:41:55.922Z,2.35
2022-08-12T17:47:14.624Z,2.40
2022-08-12T17:52:50.198Z,2.55
2022-08-12T18:04:04.397Z,2.65
2022-08-12T18:09:24.602Z,2.80
2022-08-12T18:14:55.168Z,2.90
2022-08-12T18:20:26.964Z,2.95
2022-08-12T18:26:14.520Z,3.05
2022-08-12T18:31:44.568Z,3.05
2022-08-12T18:37:26.621Z,3.10
2022-08-12T18:42:33.467Z,3.15
2022-08-12T18:54:06.648Z,3.35
2022-08-12T18:59:10.040Z,3.45
2022-08-12T19:04:40.670Z,3.50
2022-08-12T19:10:12.329Z,3.55
2022-08-12T19:15:44.142Z,3.65
2022-08-12T19:21:20.298Z,3.65
2022-08-12T19:26:47.837Z,3.70
2022-08-12T19:32:23.235Z,3.75
2022-08-12T19:38:03.808Z,3.75
2022-08-12T19:43:23.330Z,3.80
2022-08-12T19:48:58.878Z,3.95
2022-08-12T19:54:30.187Z,4.05
2022-08-12T20:00:04.245Z,4.15
2022-08-12T20:06:06.684Z,4.20
2022-08-12T20:12:13.579Z,4.35
2022-08-12T20:16:52.302Z,4.40
2022-08-12T20:22:05.225Z,4.45
2022-08-12T20:28:02.491Z,4.60
2022-08-12T20:33:17.529Z,4.80
2022-08-12T20:38:40.504Z,4.80
2022-08-12T20:49:44.217Z,5.25
2022-08-12T20:55:19.478Z,5.45
2022-08-12T21:00:47.734Z,5.60
2022-08-12T21:06:19.485Z,5.70
2022-08-12T21:11:51.325Z,5.70
2022-08-12T21:14:16.418Z,0.00
2022-08-12T21:19:51.999Z,0.99
2022-08-12T21:25:17.711Z,0.98
2022-08-12T21:31:11.694Z,0.98
2022-08-12T21:36:22.545Z,1.38
2022-08-12T21:41:53.044Z,1.31
2022-08-12T21:47:24.528Z,1.12
2022-08-12T21:52:56.313Z,1.10
2022-08-12T21:58:28.138Z,1.31
2022-08-12T22:04:04.065Z,1.18
2022-08-12T22:09:42.550Z,1.07
2022-08-12T22:15:04.386Z,1.14
2022-08-12T22:20:36.297Z,1.28
2022-08-12T22:26:07.787Z,1.26
2022-08-12T22:31:39.916Z,1.24
2022-08-12T22:37:20.328Z,1.16
2022-08-12T22:48:20.110Z,1.20
2022-08-12T22:53:46.822Z,1.29
2022-08-12T22:59:18.749Z,1.35
2022-08-12T23:04:50.303Z,1.35
2022-08-12T23:10:21.526Z,1.45
2022-08-12T23:15:55.267Z,1.55
2022-08-12T23:21:24.889Z,1.65
2022-08-12T23:26:57.101Z,1.75
2022-08-12T23:32:53.948Z,1.80
2022-08-12T23:38:00.290Z,1.90
2022-08-12T23:43:39.415Z,2.10
2022-08-12T23:54:44.063Z,2.40
